createdAt,value
2022-12-31T00:02:05.618Z,0.40
2022-12-31T00:07:27.508Z,0.50
2022-12-31T00:12:49.269Z,0.30
2022-12-31T00:18:11.699Z,0.28
2022-12-31T00:23:33.610Z,0.10
2022-12-31T00:28:57.638Z,0.30
2022-12-31T00:34:19.356Z,0.20
2022-12-31T00:39:41.101Z,0.25
2022-12-31T00:45:02.847Z,0.10
2022-12-31T00:50:24.569Z,0.20
2022-12-31T00:55:46.541Z,0.30
2022-12-31T01:01:13.720Z,0.20
2022-12-31T01:06:36.055Z,0.10
2022-12-31T01:11:57.883Z,0.08
2022-12-31T01:17:19.627Z,0.13
2022-12-31T01:22:41.379Z,0.17
2022-12-31T01:28:04.359Z,0.10
2022-12-31T01:33:26.081Z,0.10
2022-12-31T01:38:47.830Z,0.20
2022-12-31T01:44:12.390Z,0.00
2022-12-31T01:49:43.082Z,0.20
2022-12-31T01:55:29.237Z,0.20
2022-12-31T02:00:53.518Z,0.13
2022-12-31T02:06:21.201Z,0.20
2022-12-31T02:11:43.121Z,0.10
2022-12-31T02:17:38.963Z,0.10
2022-12-31T02:23:34.431Z,0.00
2022-12-31T02:29:32.837Z,0.00
2022-12-31T02:35:03.448Z,0.10
2022-12-31T02:40:25.813Z,0.00
2022-12-31T02:46:13.806Z,0.10
2022-12-31T02:51:50.885Z,0.05
2022-12-31T02:57:15.575Z,0.00
2022-12-31T03:02:40.876Z,0.00
2022-12-31T03:08:02.645Z,0.00
2022-12-31T03:13:24.993Z,0.10
2022-12-31T03:19:05.371Z,0.00
2022-12-31T03:24:45.751Z,0.00
2022-12-31T03:30:08.249Z,0.00
2022-12-31T03:35:32.930Z,0.03
2022-12-31T03:40:54.661Z,0.00
2022-12-31T03:46:16.417Z,0.03
2022-12-31T03:51:38.243Z,0.00
2022-12-31T03:57:00.487Z,0.10
2022-12-31T04:02:28.590Z,0.20
2022-12-31T04:07:52.356Z,0.00
2022-12-31T04:13:16.929Z,0.10
2022-12-31T04:18:38.989Z,0.10
2022-12-31T04:24:01.981Z,0.10
2022-12-31T04:29:23.938Z,0.10
2022-12-31T04:34:45.647Z,0.20
2022-12-31T04:40:08.162Z,0.20
2022-12-31T04:45:29.902Z,0.10
2022-12-31T04:50:51.751Z,0.20
2022-12-31T04:56:13.898Z,0.15
2022-12-31T05:01:36.877Z,0.10
2022-12-31T05:06:59.146Z,0.15
2022-12-31T05:12:20.955Z,0.10
2022-12-31T05:17:42.711Z,0.15
2022-12-31T05:23:04.657Z,0.20
2022-12-31T05:28:26.748Z,0.20
2022-12-31T05:33:48.641Z,0.20
2022-12-31T05:39:10.412Z,0.17
2022-12-31T05:44:32.301Z,0.30
2022-12-31T05:49:54.075Z,0.10
2022-12-31T05:55:15.923Z,0.20
2022-12-31T06:00:37.629Z,0.30
2022-12-31T06:06:01.365Z,0.05
2022-12-31T06:11:23.601Z,0.15
2022-12-31T06:16:45.349Z,0.20
2022-12-31T06:22:07.183Z,0.13
2022-12-31T06:27:29.110Z,0.20
2022-12-31T06:32:51.003Z,0.28
2022-12-31T06:38:12.736Z,0.20
2022-12-31T06:43:35.521Z,0.10
2022-12-31T06:48:57.317Z,0.20
2022-12-31T06:54:19.067Z,0.17
2022-12-31T06:59:41.152Z,0.20
2022-12-31T07:05:08.202Z,0.10
2022-12-31T07:10:43.079Z,0.28
2022-12-31T07:16:30.924Z,0.20
2022-12-31T07:21:54.803Z,0.20
2022-12-31T07:27:42.089Z,0.30
2022-12-31T07:33:44.636Z,0.30
2022-12-31T07:39:11.894Z,0.20
2022-12-31T07:44:57.719Z,0.95
2022-12-31T07:50:19.971Z,0.40
2022-12-31T07:55:41.707Z,0.57
2022-12-31T08:01:04.032Z,0.60
2022-12-31T08:06:44.826Z,0.65
2022-12-31T08:12:08.704Z,0.82
2022-12-31T08:17:30.570Z,0.68
2022-12-31T08:23:33.573Z,0.60
2022-12-31T08:29:13.033Z,0.40
2022-12-31T08:34:43.894Z,0.70
2022-12-31T08:40:59.801Z,0.80
2022-12-31T08:46:29.458Z,0.90
2022-12-31T08:51:51.477Z,0.90
2022-12-31T08:57:44.008Z,0.50
2022-12-31T09:03:20.088Z,0.52
2022-12-31T09:14:41.107Z,0.50
2022-12-31T09:20:03.299Z,0.63
2022-12-31T09:25:26.300Z,0.50
2022-12-31T09:31:02.604Z,0.40
2022-12-31T09:36:36.610Z,0.38
2022-12-31T09:42:16.780Z,0.50
2022-12-31T09:47:59.896Z,0.60
2022-12-31T09:53:36.423Z,1.02
2022-12-31T09:59:37.451Z,0.70
2022-12-31T10:06:00.985Z,0.77
2022-12-31T10:11:47.365Z,0.90
2022-12-31T10:17:54.226Z,0.80
2022-12-31T10:23:50.449Z,1.07
2022-12-31T10:29:36.808Z,0.87
2022-12-31T10:35:31.339Z,0.98
2022-12-31T10:40:56.048Z,1.10
2022-12-31T10:46:39.569Z,1.30
2022-12-31T10:52:48.927Z,1.27
2022-12-31T10:58:38.046Z,1.20
2022-12-31T11:04:14.968Z,1.30
2022-12-31T11:09:51.570Z,1.90
2022-12-31T11:15:39.458Z,1.30
2022-12-31T11:21:28.310Z,1.48
2022-12-31T11:27:07.107Z,1.75
2022-12-31T11:32:56.529Z,1.67
2022-12-31T11:38:29.191Z,1.45
2022-12-31T11:44:01.220Z,1.30
2022-12-31T11:49:50.618Z,1.30
2022-12-31T11:55:26.875Z,1.13
2022-12-31T12:01:14.111Z,1.05
2022-12-31T12:06:35.854Z,1.10
2022-12-31T12:12:03.126Z,1.08
2022-12-31T12:17:32.652Z,0.82
2022-12-31T12:22:56.503Z,1.50
2022-12-31T12:28:18.512Z,0.90
2022-12-31T12:33:46.477Z,1.48
2022-12-31T12:39:08.389Z,1.50
2022-12-31T12:44:30.843Z,1.05
2022-12-31T12:49:54.502Z,0.70
2022-12-31T12:55:23.177Z,1.27
2022-12-31T13:00:47.639Z,1.45
2022-12-31T13:06:50.953Z,1.55
2022-12-31T13:12:27.889Z,1.35
2022-12-31T13:18:02.813Z,1.58
2022-12-31T13:23:39.981Z,1.58
2022-12-31T13:29:03.864Z,1.40
2022-12-31T13:34:33.846Z,1.27
2022-12-31T13:40:03.098Z,1.10
2022-12-31T13:45:34.885Z,1.52
2022-12-31T13:51:23.232Z,1.88
2022-12-31T13:56:47.325Z,1.80
2022-12-31T14:02:39.132Z,3.33
2022-12-31T14:08:03.073Z,2.50
2022-12-31T14:13:43.323Z,1.63
2022-12-31T14:19:18.829Z,1.70
2022-12-31T14:24:46.608Z,2.00
2022-12-31T14:30:19.778Z,1.80
2022-12-31T14:35:52.732Z,2.05
2022-12-31T14:41:37.022Z,1.50
2022-12-31T14:47:07.663Z,2.15
2022-12-31T14:52:49.266Z,1.50
2022-12-31T14:58:28.233Z,1.63
2022-12-31T15:03:50.797Z,1.75
2022-12-31T15:09:20.786Z,1.50
2022-12-31T15:15:08.725Z,1.52
2022-12-31T15:20:59.485Z,2.75
2022-12-31T15:26:24.690Z,3.17
2022-12-31T15:31:48.062Z,2.90
2022-12-31T15:38:00.725Z,2.53
2022-12-31T15:43:25.136Z,2.60
2022-12-31T15:48:55.439Z,2.35
2022-12-31T15:54:50.665Z,2.17
2022-12-31T16:00:20.967Z,2.22
2022-12-31T16:05:42.666Z,1.73
2022-12-31T16:11:06.056Z,1.85
2022-12-31T16:16:32.637Z,1.38
2022-12-31T16:22:00.835Z,1.50
2022-12-31T16:27:24.571Z,1.65
2022-12-31T16:32:48.717Z,1.90
2022-12-31T16:38:18.082Z,1.63
2022-12-31T16:43:41.854Z,1.45
2022-12-31T16:49:15.873Z,1.98
2022-12-31T16:54:39.836Z,1.42
2022-12-31T17:00:06.466Z,1.60
2022-12-31T17:05:28.871Z,1.73
2022-12-31T17:10:51.064Z,1.20
2022-12-31T17:16:18.074Z,1.23
2022-12-31T17:21:47.597Z,1.20
2022-12-31T17:27:10.021Z,1.90
2022-12-31T17:32:37.725Z,1.55
2022-12-31T17:38:17.975Z,1.35
2022-12-31T17:43:40.540Z,2.20
2022-12-31T17:49:03.176Z,4.82
2022-12-31T17:54:24.904Z,4.63
2022-12-31T17:59:46.648Z,5.05
2022-12-31T18:05:20.735Z,4.82
2022-12-31T18:10:44.539Z,9.55
2022-12-31T18:16:06.723Z,10.18
2022-12-31T18:21:32.805Z,12.88
2022-12-31T18:26:55.986Z,16.13
2022-12-31T18:32:24.509Z,16.35
2022-12-31T18:37:46.650Z,20.67
2022-12-31T18:43:17.489Z,23.90
2022-12-31T18:48:41.558Z,26.45
2022-12-31T18:54:04.911Z,27.25
2022-12-31T18:59:26.721Z,28.05
2022-12-31T19:04:48.712Z,25.33
2022-12-31T19:10:14.279Z,21.35
2022-12-31T19:15:43.477Z,19.25
2022-12-31T19:21:05.468Z,15.90
2022-12-31T19:26:27.284Z,14.25
2022-12-31T19:31:49.777Z,11.82
2022-12-31T19:37:15.535Z,10.25
2022-12-31T19:42:37.348Z,9.20
2022-12-31T19:47:59.067Z,7.50
2022-12-31T19:53:24.192Z,6.80
2022-12-31T19:58:46.432Z,6.32
2022-12-31T20:04:08.195Z,5.20
2022-12-31T20:09:29.917Z,4.35
2022-12-31T20:14:51.684Z,3.55
2022-12-31T20:20:13.537Z,3.33
2022-12-31T20:25:35.263Z,3.30
2022-12-31T20:30:57.218Z,3.38
2022-12-31T20:36:19.021Z,2.53
2022-12-31T20:41:40.739Z,2.63
2022-12-31T20:47:02.590Z,2.08
2022-12-31T20:52:24.347Z,2.53
2022-12-31T20:57:46.083Z,1.98
2022-12-31T21:03:23.799Z,1.92
2022-12-31T21:08:49.674Z,2.05
2022-12-31T21:14:11.482Z,1.80
2022-12-31T21:19:33.212Z,1.55
2022-12-31T21:24:55.001Z,1.95
2022-12-31T21:30:18.799Z,2.10
2022-12-31T21:35:45.672Z,2.13
2022-12-31T21:41:33.284Z,2.63
2022-12-31T21:47:41.054Z,2.27
2022-12-31T21:53:02.648Z,2.70
2022-12-31T21:58:26.498Z,2.65
2022-12-31T22:03:49.277Z,1.97
2022-12-31T22:09:11.059Z,2.00
2022-12-31T22:14:32.774Z,2.60
2022-12-31T22:20:17.566Z,2.25
2022-12-31T22:25:37.979Z,1.90
2022-12-31T22:31:01.040Z,1.92
2022-12-31T22:36:24.269Z,2.88
2022-12-31T22:41:46.670Z,2.53
2022-12-31T22:47:08.801Z,2.50
2022-12-31T22:52:31.383Z,2.17
2022-12-31T22:57:53.105Z,1.70
2022-12-31T23:03:15.351Z,1.73
2022-12-31T23:08:37.149Z,2.25
2022-12-31T23:14:17.814Z,2.50
2022-12-31T23:19:58.412Z,2.90
2022-12-31T23:25:20.465Z,2.17
2022-12-31T23:30:43.374Z,2.03
2022-12-31T23:36:07.069Z,1.88
2022-12-31T23:41:28.839Z,1.90
2022-12-31T23:46:50.914Z,2.20
2022-12-31T23:52:12.667Z,2.05
2022-12-31T23:57:34.406Z,1.55
